Latest Weather Observations for Bickley

IDW60801

Issued at 5:33 pm WST Monday 23 October 2017 (issued every 30 minutes, with the page automatically refreshed every 10 minutes)

About weather observations | Map of weather stations | Latest weather observations for WA | Other Formats
Station Details ID: 009240 Name: BICKLEY Lat: -32.01 Lon: 116.14 Height: 384.0 m
Data from the previous 72 hours. | See also: Recent months at Bickley
Date/Time
WST
Temp
°C
App
Temp
°C
Dew
Point
°C
Rel
Hum
%
Delta-T
°C
Wind Press
QNH
hPa
Press
MSL
hPa
Rain since
9am
mm
Dir  Spd
km/h
Gust
km/h
Spd
kts
Gust
kts
23/05:30pm 16.9 14.0 12.4 75 2.5 WSW 19 32 10 17 - - 0.0
23/05:00pm 17.4 15.4 12.7 74 2.7 WSW 15 26 8 14 - - 0.0
23/04:30pm 18.1 15.4 12.8 71 3.0 WSW 19 32 10 17 - - 0.0
23/04:00pm 18.6 17.0 12.8 69 3.3 WSW 13 24 7 13 - - 0.0
23/03:30pm 18.5 17.0 13.1 71 3.1 WSW 13 24 7 13 - - 0.0
23/03:00pm 18.4 16.0 12.8 70 3.2 SW 17 26 9 14 - - 0.0
23/02:30pm 18.5 16.3 13.4 72 2.9 WSW 17 30 9 16 - - 0.0
23/02:00pm 19.0 17.7 13.6 71 3.1 WSW 13 17 7 9 - - 0.0
23/01:30pm 19.0 17.5 13.2 69 3.3 W 13 22 7 12 - - 0.0
23/01:00pm 18.9 17.8 13.1 69 3.3 W 11 24 6 13 - - 0.0
23/12:30pm 18.5 17.1 13.4 72 2.9 WSW 13 22 7 12 - - 0.0
23/12:00pm 17.5 17.3 14.8 84 1.6 WSW 9 20 5 11 - - 0.0
23/11:30am 16.3 15.5 14.1 87 1.3 W 11 17 6 9 - - 0.0
23/11:00am 15.8 14.9 13.8 88 1.1 W 11 20 6 11 - - 0.0
23/10:30am 16.4 15.7 14.4 88 1.2 WSW 11 17 6 9 - - 0.0
23/10:00am 16.3 16.2 15.0 92 0.8 WSW 9 17 5 9 - - 0.0
23/09:30am 15.4 15.2 14.6 95 0.5 WSW 9 13 5 7 - - 0.0
23/09:00am 15.4 15.2 14.8 96 0.3 WSW 9 15 5 8 - - 0.0
23/08:30am 15.4 14.5 14.8 96 0.3 W 13 20 7 11 - - 0.0
23/08:00am 15.5 14.7 15.2 98 0.2 W 13 24 7 13 - - 0.0
23/07:30am 15.7 15.8 15.5 99 0.1 W 9 17 5 9 - - 0.0
23/07:00am 15.3 15.3 15.1 99 0.1 WNW 9 13 5 7 - - 0.0
23/06:30am 15.0 14.8 14.8 99 0.1 W 9 15 5 8 - - 0.0
23/06:00am 15.0 14.8 14.7 98 0.2 WNW 9 15 5 8 - - 0.0
23/05:30am 14.9 14.2 14.4 97 0.3 W 11 15 6 8 - - 0.0
23/05:00am 14.9 14.6 14.4 97 0.3 W 9 15 5 8 - - 0.0
23/04:30am 15.0 14.3 14.4 96 0.3 W 11 17 6 9 - - 0.0
23/04:00am 15.0 13.9 14.2 95 0.5 W 13 17 7 9 - - 0.0
23/03:30am 14.5 13.5 13.4 93 0.6 WNW 11 15 6 8 - - 0.0
23/03:00am 14.9 14.3 13.4 91 0.9 WNW 9 11 5 6 - - 0.0
23/02:30am 15.4 14.5 13.8 90 0.9 WSW 11 15 6 8 - - 0.0
23/02:00am 15.3 14.4 13.8 91 0.9 SW 11 13 6 7 - - 0.0
23/01:30am 15.4 14.6 13.9 91 0.9 SW 11 15 6 8 - - 0.0
23/01:00am 15.4 14.6 14.1 92 0.7 SW 11 15 6 8 - - 0.0
23/12:30am 15.5 14.4 14.2 92 0.8 SSW 13 17 7 9 - - 0.0
23/12:00am 15.5 14.8 14.2 92 0.8 SSW 11 15 6 8 - - 0.0
 
Date/Time
WST
Temp
°C
App
Temp
°C
Dew
Point
°C
Rel
Hum
%
Delta-T
°C
Wind Press
QNH
hPa
Press
MSL
hPa
Rain since
9am
mm
Dir  Spd
km/h
Gust
km/h
Spd
kts
Gust
kts
22/11:30pm 15.7 15.0 14.4 92 0.8 SW 11 13 6 7 - - 0.0
22/11:00pm 15.8 14.7 14.3 91 0.9 SW 13 15 7 8 - - 0.0
22/10:30pm 15.9 15.6 14.3 90 0.9 SW 9 13 5 7 - - 0.0
22/10:00pm 16.0 15.3 14.4 90 0.9 SW 11 15 6 8 - - 0.0
22/09:30pm 16.1 15.5 14.5 90 0.9 SW 11 15 6 8 - - 0.0
22/09:00pm 16.3 16.1 14.7 90 0.9 WSW 9 13 5 7 - - 0.0
22/08:30pm 16.6 15.7 14.8 89 1.1 SW 13 17 7 9 - - 0.0
22/08:00pm 17.0 16.1 14.8 87 1.3 SW 13 20 7 11 - - 0.0
22/07:30pm 17.5 16.2 14.8 84 1.6 WSW 15 22 8 12 - - 0.0
22/07:00pm 18.3 16.2 14.6 79 2.2 WSW 19 28 10 15 - - 0.0
22/06:30pm 18.8 16.4 13.9 73 2.9 WSW 19 28 10 15 - - 0.0
22/06:00pm 19.7 17.3 13.9 69 3.4 WSW 19 30 10 16 - - 0.0
22/05:30pm 20.8 18.5 14.0 65 4.0 WSW 19 26 10 14 - - 0.0
22/05:00pm 22.3 20.2 14.7 62 4.6 WSW 19 28 10 15 - - 0.0
22/04:30pm 24.0 21.2 14.4 55 5.8 W 22 32 12 17 - - 0.0
22/04:00pm 23.7 22.4 13.8 53 5.9 W 13 22 7 12 - - 0.0
22/03:30pm 25.7 25.5 13.5 46 7.3 WSW 7 17 4 9 - - 0.0
22/03:00pm 25.0 25.2 12.9 47 7.1 SW 4 7 2 4 - - 0.0
22/02:30pm 25.6 25.8 14.1 49 6.9 SW 6 11 3 6 - - 0.0
22/02:00pm 24.2 23.5 13.1 50 6.5 E 9 20 5 11 - - 0.0
22/01:30pm 24.6 23.8 14.1 52 6.3 ENE 11 20 6 11 - - 0.0
22/01:00pm 24.5 23.3 14.0 52 6.3 ENE 13 24 7 13 - - 0.0
22/12:30pm 24.0 22.8 14.1 54 5.9 ENE 13 26 7 14 - - 0.0
22/12:00pm 24.0 22.9 14.4 55 5.8 E 13 24 7 13 - - 0.0
22/11:30am 22.8 20.7 13.6 56 5.4 ENE 17 28 9 15 - - 0.0
22/11:00am 22.8 20.5 14.1 58 5.2 ENE 19 28 10 15 - - 0.0
22/10:30am 22.2 19.8 14.3 61 4.7 E 20 33 11 18 - - 0.0
22/10:00am 21.3 18.8 14.0 63 4.3 E 20 39 11 21 - - 0.0
22/09:30am 21.0 18.7 14.2 65 4.0 E 19 39 10 21 - - 0.0
22/09:00am 19.5 18.3 14.1 71 3.2 ESE 13 26 7 14 - - 3.0
22/08:30am 19.1 17.0 13.5 70 3.2 E 17 26 9 14 - - 3.0
22/08:00am 19.3 18.8 13.7 70 3.3 SE 9 22 5 12 - - 3.0
22/07:30am 18.1 15.7 13.8 76 2.5 E 19 33 10 18 - - 3.0
22/07:00am 16.7 12.6 13.8 83 1.7 E 28 48 15 26 - - 3.0
22/06:57am 16.6 12.5 13.7 83 1.7 ENE 28 48 15 26 - - 3.0
22/06:30am 15.3 11.2 12.6 84 1.5 E 26 48 14 26 - - 3.0
22/06:18am 15.4 10.9 12.7 84 1.5 E 28 48 15 26 - - 3.0
22/06:00am 15.5 11.4 12.6 83 1.6 ENE 26 46 14 25 - - 3.0
22/05:30am 15.3 11.9 12.4 83 1.6 E 22 30 12 16 - - 3.0
22/05:00am 16.1 14.7 12.3 78 2.1 ENE 11 20 6 11 - - 3.0
22/04:30am 16.4 13.4 12.4 77 2.2 E 20 32 11 17 - - 3.0
22/04:00am 16.5 12.3 12.5 77 2.2 ENE 26 41 14 22 - - 3.0
22/03:32am 16.4 11.8 12.2 76 2.3 E 28 46 15 25 - - 3.0
22/03:30am 16.5 12.3 12.3 76 2.4 E 26 46 14 25 - - 3.0
22/03:00am 16.5 11.5 12.3 76 2.4 E 30 52 16 28 - - 3.0
22/02:36am 16.8 12.2 12.3 75 2.5 E 28 48 15 26 - - 3.0
22/02:30am 16.8 12.2 12.3 75 2.5 E 28 43 15 23 - - 2.8
22/02:13am 17.1 12.5 12.4 74 2.6 E 28 46 15 25 - - 2.8
22/02:00am 17.1 13.3 12.4 74 2.6 E 24 41 13 22 - - 2.8
22/01:40am 17.2 12.6 12.3 73 2.8 E 28 46 15 25 - - 2.8
22/01:30am 17.2 13.0 12.3 73 2.8 E 26 43 14 23 - - 2.8
22/01:00am 17.5 12.9 12.4 72 2.9 E 28 50 15 27 - - 2.8
22/12:51am 17.4 12.9 12.5 73 2.8 E 28 46 15 25 - - 2.8
22/12:30am 17.2 13.2 12.9 76 2.4 E 26 44 14 24 - - 2.8
22/12:00am 16.9 12.7 13.6 81 1.9 E 28 48 15 26 - - 2.8
 
Date/Time
WST
Temp
°C
App
Temp
°C
Dew
Point
°C
Rel
Hum
%
Delta-T
°C
Wind Press
QNH
hPa
Press
MSL
hPa
Rain since
9am
mm
Dir  Spd
km/h
Gust
km/h
Spd
kts
Gust
kts
21/11:31pm 16.1 11.0 13.8 86 1.3 E 33 52 18 28 - - 2.8
21/11:30pm 16.1 11.0 13.8 86 1.3 E 33 50 18 27 - - 2.8
21/11:00pm 16.4 11.7 13.3 82 1.8 ENE 30 48 16 26 - - 2.6
21/10:59pm 16.5 12.2 13.2 81 1.9 ENE 28 48 15 26 - - 2.4
21/10:30pm 17.2 13.7 13.5 79 2.1 ENE 24 41 13 22 - - 2.0
21/10:05pm 17.3 11.4 13.6 79 2.1 ENE 37 57 20 31 - - 2.0
21/10:00pm 17.1 11.2 13.6 80 2.0 ENE 37 54 20 29 - - 2.0
21/09:56pm 16.9 11.3 13.4 80 2.0 ENE 35 54 19 29 - - 2.0
21/09:30pm 16.8 13.2 14.1 84 1.6 E 26 41 14 22 - - 1.8
21/09:19pm 16.2 12.0 13.5 84 1.5 E 28 44 15 24 - - 1.8
21/09:00pm 16.7 15.0 13.6 82 1.8 ESE 15 24 8 13 - - 1.6
21/08:30pm 16.4 12.2 12.4 77 2.2 E 26 33 14 18 - - 1.0
21/08:00pm 17.2 14.9 11.7 70 3.1 ENE 15 28 8 15 - - 0.6
21/07:30pm 18.8 15.1 11.4 62 4.1 E 22 32 12 17 - - 0.0
21/07:00pm 21.4 18.9 8.3 43 7.0 ESE 11 22 6 12 - - 0.0
21/06:30pm 20.9 17.3 8.2 44 6.8 E 17 24 9 13 - - 0.0
21/06:00pm 21.0 16.8 8.3 44 6.8 E 20 30 11 16 - - 0.0
21/05:30pm 21.1 17.2 8.7 45 6.7 E 19 30 10 16 - - 0.0
21/05:00pm 21.3 17.6 10.2 49 6.1 E 20 35 11 19 - - 0.0
21/04:30pm 22.7 18.4 8.0 39 7.9 E 20 30 11 16 - - 0.0
21/04:00pm 23.3 19.7 8.2 38 8.1 E 17 24 9 13 - - 0.0
21/03:30pm 23.6 19.7 8.8 39 8.1 E 19 30 10 16 - - 0.0
21/03:00pm 24.4 20.3 8.0 35 8.9 ENE 19 30 10 16 - - 0.0
21/02:30pm 23.9 19.5 9.1 39 8.1 ENE 22 32 12 17 - - 0.0
21/02:00pm 24.7 20.6 8.6 36 8.8 ENE 20 35 11 19 - - 0.0
21/01:31pm 24.9 18.9 7.1 32 9.5 E 28 46 15 25 - - 0.0
21/01:30pm 25.2 19.8 8.2 34 9.3 E 26 46 14 25 - - 0.0
21/01:13pm 25.5 19.4 6.7 30 10.0 E 28 48 15 26 - - 0.0
21/01:00pm 25.4 19.6 8.0 33 9.5 E 28 43 15 23 - - 0.0
21/12:30pm 24.6 19.1 9.3 38 8.5 E 28 50 15 27 - - 0.0
21/12:28pm 24.5 18.7 8.0 35 8.9 E 28 50 15 27 - - 0.0
21/12:00pm 22.6 17.8 9.0 42 7.4 E 24 39 13 21 - - 0.0
21/11:30am 19.9 17.0 9.5 51 5.6 E 15 30 8 16 - - 0.0
21/11:00am 19.8 16.2 8.2 47 6.1 ESE 17 26 9 14 - - 0.0
21/10:30am 19.4 14.3 7.8 47 6.1 E 24 35 13 19 - - 0.0
21/10:00am 20.7 15.7 8.0 44 6.7 E 24 43 13 23 - - 0.0
21/09:30am 21.1 15.5 7.0 40 7.3 E 26 44 14 24 - - 0.0
21/09:15am 20.8 14.8 7.1 41 7.1 E 28 50 15 27 - - 0.0
21/09:00am 19.2 13.7 6.0 42 6.7 E 24 41 13 22 - - 0.0
21/08:30am 19.3 13.9 8.0 48 5.9 E 26 41 14 22 - - 0.0
21/08:06am 18.3 12.4 7.4 49 5.6 E 28 50 15 27 - - 0.0
21/08:00am 17.9 12.6 7.0 49 5.6 E 24 41 13 22 - - 0.0
21/07:30am 16.5 11.4 7.7 56 4.5 E 24 39 13 21 - - 0.0
21/07:00am 14.7 9.1 7.3 61 3.7 E 26 39 14 21 - - 0.0
21/06:30am 13.5 8.2 6.8 64 3.3 E 24 41 13 22 - - 0.0
21/06:00am 13.0 7.2 6.4 64 3.2 E 26 39 14 21 - - 0.0
21/05:30am 12.8 7.4 6.2 64 3.2 E 24 39 13 21 - - 0.0
21/05:00am 13.0 7.9 6.1 63 3.3 E 22 33 12 18 - - 0.0
21/04:30am 13.3 7.9 6.2 62 3.5 ESE 24 39 13 21 - - 0.0
21/04:00am 13.8 8.4 6.2 60 3.7 ESE 24 35 13 19 - - 0.0
21/03:30am 13.9 8.5 6.3 60 3.7 ESE 24 39 13 21 - - 0.0
21/03:00am 14.0 8.9 6.1 59 3.9 ESE 22 33 12 18 - - 0.0
21/02:30am 14.4 9.0 6.3 58 4.0 ESE 24 39 13 21 - - 0.0
21/02:00am 14.7 9.2 6.0 56 4.3 ESE 24 39 13 21 - - 0.0
21/01:30am 15.3 10.2 5.8 53 4.6 ESE 22 39 12 21 - - 0.0
21/01:00am 15.4 10.2 5.3 51 4.9 E 22 39 12 21 - - 0.0
21/12:30am 16.4 11.0 4.4 45 5.7 ESE 22 39 12 21 - - 0.0
21/12:00am 17.4 11.8 3.3 39 6.7 ESE 22 35 12 19 - - 0.0
 
Date/Time
WST
Temp
°C
App
Temp
°C
Dew
Point
°C
Rel
Hum
%
Delta-T
°C
Wind Press
QNH
hPa
Press
MSL
hPa
Rain since
9am
mm
Dir  Spd
km/h
Gust
km/h
Spd
kts
Gust
kts
20/11:30pm 18.6 13.4 3.3 36 7.3 ESE 20 33 11 18 - - 0.0
20/11:00pm 18.8 13.4 2.6 34 7.6 ESE 20 32 11 17 - - 0.0
20/10:30pm 18.5 13.3 3.6 37 7.1 ESE 20 30 11 16 - - 0.0
20/10:00pm 19.1 14.1 3.7 36 7.4 ESE 19 32 10 17 - - 0.0
20/09:30pm 18.5 13.6 3.9 38 7.0 ESE 19 26 10 14 - - 0.0
20/09:00pm 18.9 14.3 3.9 37 7.2 ESE 17 26 9 14 - - 0.0
20/08:30pm 19.2 15.1 4.2 37 7.3 ESE 15 26 8 14 - - 0.0
20/08:00pm 19.0 14.9 4.4 38 7.1 ESE 15 26 8 14 - - 0.0
20/07:30pm 19.8 15.3 4.3 36 7.6 ESE 17 26 9 14 - - 0.0
20/07:00pm 19.7 15.6 4.6 37 7.4 ESE 15 22 8 12 - - 0.0
20/06:30pm 20.5 16.9 4.9 36 7.8 ESE 13 20 7 11 - - 0.0
20/06:00pm 21.7 18.2 5.6 35 8.2 ESE 13 20 7 11 - - 0.0

Other Formats:

Comma delimited format used in spreadsheet applications
http://www.bom.gov.au/fwo/IDW60801/IDW60801.95610.axf

JavaScript Object Notation format (JSON) in row-major order
http://www.bom.gov.au/fwo/IDW60801/IDW60801.95610.json